Terminal Aerodrome Forecast
Issued by NWS Dallas/Fort Worth, TX

Home | Current Version | Previous Version | Text Only | Print | Product List | Glossary On
Versions: 1 2 3 4 5 6 7 8 9 10 11 12 13 14 15 16 17 18 19 20 21 22 23 24 25 26 27
447
FTUS44 KFWD 022110 AAA
TAFDFW
TAF AMD
KDFW 022110Z 0221/0324 09010KT P6SM BKN080
     FM022200 09010KT P6SM VCSH BKN070
     FM030000 08008KT P6SM -SHRA OVC060
     FM030600 07009KT 6SM -SHRA BR OVC030
     FM031200 06014KT 4SM RA VCTS BKN008 OVC025CB
     FM031700 06012KT 2SM -SHRA BR OVC005=

USA.gov is the U.S. government's official web portal to all federal, state and local government web resources and services.